createdAt,value
2017-12-22T00:00:20.611Z,10.10
2017-12-22T00:01:26.246Z,10.10
2017-12-22T00:02:31.644Z,10.10
2017-12-22T00:03:36.233Z,10.10
2017-12-22T00:04:40.815Z,10.10
2017-12-22T00:05:46.228Z,10.00
2017-12-22T00:06:51.773Z,10.00
2017-12-22T00:07:57.109Z,10.00
2017-12-22T00:09:02.711Z,10.00
2017-12-22T00:10:07.346Z,9.90
2017-12-22T00:11:11.996Z,10.00
2017-12-22T00:12:16.763Z,10.00
2017-12-22T00:13:21.621Z,10.00
2017-12-22T00:14:26.946Z,9.90
2017-12-22T00:15:37.645Z,10.00
2017-12-22T00:16:42.230Z,10.00
2017-12-22T00:17:47.839Z,10.00
2017-12-22T00:18:52.359Z,10.00
2017-12-22T00:19:57.702Z,10.00
2017-12-22T00:21:03.046Z,10.00
2017-12-22T00:22:07.746Z,10.00
2017-12-22T00:23:13.144Z,10.10
2017-12-22T00:24:17.742Z,10.10
2017-12-22T00:25:22.343Z,10.10
2017-12-22T00:26:27.059Z,10.10
2017-12-22T00:27:31.643Z,10.10
2017-12-22T00:28:37.138Z,10.10
2017-12-22T00:29:41.690Z,10.10
2017-12-22T00:30:47.331Z,10.10
2017-12-22T00:31:52.027Z,10.10
2017-12-22T00:32:57.361Z,10.20
2017-12-22T00:34:02.154Z,10.10
2017-12-22T00:35:07.511Z,10.20
2017-12-22T00:36:12.899Z,10.10
2017-12-22T00:37:17.660Z,10.10
2017-12-22T00:38:22.190Z,10.10
2017-12-22T00:39:27.505Z,10.10
2017-12-22T00:40:32.844Z,10.00
2017-12-22T00:41:38.418Z,10.00
2017-12-22T00:42:43.011Z,10.00
2017-12-22T00:43:47.581Z,10.00
2017-12-22T00:44:52.069Z,10.00
2017-12-22T00:46:03.689Z,10.00
2017-12-22T00:47:08.247Z,9.90
2017-12-22T00:48:12.837Z,10.00
2017-12-22T00:49:18.138Z,10.10
2017-12-22T00:50:22.868Z,10.00
2017-12-22T00:51:28.194Z,10.10
2017-12-22T00:52:33.459Z,10.10
2017-12-22T00:53:38.883Z,10.10
2017-12-22T00:54:43.738Z,10.10
2017-12-22T00:55:48.146Z,10.10
2017-12-22T00:56:52.599Z,10.10
2017-12-22T00:57:57.207Z,10.10
2017-12-22T00:59:01.985Z,10.10
2017-12-22T01:00:06.322Z,10.10
2017-12-22T01:01:10.983Z,10.10
2017-12-22T01:02:15.710Z,10.10
2017-12-22T01:03:20.463Z,10.10
2017-12-22T01:04:25.242Z,10.20
2017-12-22T01:05:29.734Z,10.10
2017-12-22T01:06:35.161Z,10.00
2017-12-22T01:07:40.604Z,10.00
2017-12-22T01:08:46.045Z,10.00
2017-12-22T01:09:50.903Z,10.00
2017-12-22T01:10:55.582Z,10.00
2017-12-22T01:12:00.494Z,10.00
2017-12-22T01:13:05.215Z,9.90
2017-12-22T01:14:09.903Z,9.90
2017-12-22T01:15:19.435Z,10.00
2017-12-22T01:16:28.769Z,10.00
2017-12-22T01:19:42.602Z,10.00
2017-12-22T01:20:47.501Z,10.00
2017-12-22T01:21:52.182Z,10.10
2017-12-22T01:22:57.324Z,10.10
2017-12-22T01:24:02.826Z,10.10
2017-12-22T01:25:07.661Z,10.10
2017-12-22T01:26:12.687Z,10.10
2017-12-22T01:27:17.226Z,10.10
2017-12-22T01:28:21.872Z,10.10
2017-12-22T01:29:26.457Z,10.10
2017-12-22T01:30:31.094Z,10.00
2017-12-22T01:31:35.666Z,10.10
2017-12-22T01:32:40.446Z,10.10
2017-12-22T01:33:45.726Z,10.10
2017-12-22T01:34:50.372Z,10.10
2017-12-22T01:35:55.957Z,10.00
2017-12-22T01:37:00.995Z,10.00
2017-12-22T01:38:05.775Z,10.00
2017-12-22T01:39:10.528Z,10.10
2017-12-22T01:40:15.225Z,10.10
2017-12-22T01:41:19.877Z,10.10
2017-12-22T01:42:24.978Z,10.10
2017-12-22T01:43:29.446Z,10.00
2017-12-22T01:44:35.096Z,10.00
2017-12-22T01:45:40.715Z,9.90
2017-12-22T01:46:45.226Z,9.90
2017-12-22T01:47:49.848Z,9.90
2017-12-22T01:48:55.322Z,9.90
2017-12-22T01:50:00.054Z,9.90
2017-12-22T01:51:04.634Z,9.90
2017-12-22T01:52:09.420Z,10.00
2017-12-22T01:53:15.683Z,10.00
2017-12-22T01:54:21.154Z,10.00
2017-12-22T01:55:25.850Z,10.00
2017-12-22T01:56:31.771Z,10.00
2017-12-22T01:57:36.390Z,10.00
2017-12-22T01:58:42.548Z,10.10
2017-12-22T01:59:47.947Z,10.10
2017-12-22T02:00:52.481Z,10.10
2017-12-22T02:01:57.764Z,10.10
2017-12-22T02:03:02.240Z,10.10
2017-12-22T02:04:09.299Z,10.10
2017-12-22T02:05:14.044Z,10.10
2017-12-22T02:06:19.059Z,10.10
2017-12-22T02:07:24.852Z,10.10
2017-12-22T02:08:29.444Z,10.10
2017-12-22T02:09:34.030Z,10.20
2017-12-22T02:10:39.288Z,10.20
2017-12-22T02:11:44.158Z,10.10
2017-12-22T02:12:49.239Z,10.20
2017-12-22T02:13:53.831Z,10.20
2017-12-22T02:14:58.308Z,10.20
2017-12-22T02:16:03.720Z,10.10
2017-12-22T02:17:08.142Z,10.10
2017-12-22T02:18:12.755Z,10.20
2017-12-22T02:19:17.998Z,10.20
2017-12-22T02:20:23.492Z,10.20
2017-12-22T02:21:27.896Z,10.10
2017-12-22T02:22:32.441Z,10.20
2017-12-22T02:23:37.266Z,10.10
2017-12-22T02:24:42.886Z,10.10
2017-12-22T02:25:47.392Z,10.10
2017-12-22T02:26:52.239Z,10.10
2017-12-22T02:27:56.910Z,10.20
2017-12-22T02:29:01.662Z,10.10
2017-12-22T02:30:06.694Z,10.10
2017-12-22T02:31:11.690Z,10.20
2017-12-22T02:32:16.507Z,10.20
2017-12-22T02:33:20.982Z,10.10
2017-12-22T02:34:25.528Z,10.10
2017-12-22T02:35:30.378Z,10.00
2017-12-22T02:36:34.904Z,9.90
2017-12-22T02:37:40.134Z,9.80
2017-12-22T02:38:45.398Z,9.80
2017-12-22T02:39:50.288Z,9.80
2017-12-22T02:40:54.917Z,9.80
2017-12-22T02:41:59.430Z,9.80
2017-12-22T02:43:03.838Z,9.80
2017-12-22T02:44:08.585Z,9.80
2017-12-22T02:45:13.163Z,9.90
2017-12-22T02:46:19.163Z,9.90
2017-12-22T02:47:23.556Z,9.90
2017-12-22T02:48:28.035Z,10.00
2017-12-22T02:49:33.514Z,10.00
2017-12-22T02:50:38.753Z,9.90
2017-12-22T02:51:43.646Z,10.00
2017-12-22T02:52:48.942Z,10.00
2017-12-22T02:53:53.650Z,10.00
2017-12-22T02:54:58.560Z,10.00
2017-12-22T02:56:03.782Z,10.00
2017-12-22T02:57:08.365Z,10.00
2017-12-22T02:58:13.387Z,10.00
2017-12-22T02:59:18.206Z,10.00
2017-12-22T03:00:22.752Z,10.00
2017-12-22T03:01:27.514Z,10.00
2017-12-22T03:02:31.963Z,10.00
2017-12-22T03:03:36.917Z,10.00
2017-12-22T03:04:42.462Z,10.00
2017-12-22T03:05:47.610Z,10.00
2017-12-22T03:06:52.118Z,10.00
2017-12-22T03:07:56.947Z,10.00
2017-12-22T03:09:01.650Z,10.00
2017-12-22T03:10:06.534Z,10.00
2017-12-22T03:11:12.001Z,10.10
2017-12-22T03:12:16.510Z,10.00
2017-12-22T03:13:20.966Z,10.00
2017-12-22T03:14:25.518Z,10.00
2017-12-22T03:15:30.769Z,10.00
2017-12-22T03:16:35.378Z,10.00
2017-12-22T03:17:39.955Z,10.00
2017-12-22T03:18:45.626Z,10.00
2017-12-22T03:19:51.323Z,10.00
2017-12-22T03:20:56.250Z,10.00
2017-12-22T03:22:01.617Z,10.00
2017-12-22T03:23:06.163Z,10.00
2017-12-22T03:24:10.758Z,10.00
2017-12-22T03:25:15.229Z,10.00
2017-12-22T03:26:20.078Z,10.10
2017-12-22T03:27:24.801Z,10.00
2017-12-22T03:28:29.583Z,10.00
2017-12-22T03:29:34.662Z,10.00
2017-12-22T03:30:39.332Z,10.00
2017-12-22T03:31:44.066Z,10.00
2017-12-22T03:32:49.142Z,10.00
2017-12-22T03:33:54.067Z,10.00
2017-12-22T03:34:58.642Z,10.00
2017-12-22T03:36:03.745Z,10.00
2017-12-22T03:37:08.895Z,10.00
2017-12-22T03:38:13.598Z,10.00
2017-12-22T03:39:18.470Z,10.00
2017-12-22T03:40:23.059Z,10.10
2017-12-22T03:41:27.561Z,10.10
2017-12-22T03:42:32.726Z,10.00
2017-12-22T03:43:38.236Z,10.00
2017-12-22T03:44:43.289Z,10.00
2017-12-22T03:45:48.689Z,10.00
2017-12-22T03:46:53.492Z,10.00
2017-12-22T03:47:58.070Z,10.00
2017-12-22T03:49:03.503Z,10.00
2017-12-22T03:50:09.166Z,10.00
2017-12-22T03:51:13.714Z,10.00
2017-12-22T03:52:18.078Z,10.00
2017-12-22T03:53:23.624Z,10.00
2017-12-22T03:54:29.188Z,10.00
2017-12-22T03:55:33.723Z,10.00
2017-12-22T03:56:38.098Z,10.10
2017-12-22T03:57:43.058Z,10.10
2017-12-22T03:58:47.802Z,10.10
2017-12-22T03:59:53.053Z,10.10
2017-12-22T04:00:57.870Z,10.10
2017-12-22T04:02:02.271Z,10.10
2017-12-22T04:03:07.526Z,10.10
2017-12-22T04:04:12.043Z,10.10
2017-12-22T04:05:16.809Z,10.10
2017-12-22T04:06:21.167Z,10.10
2017-12-22T04:07:25.627Z,10.10
2017-12-22T04:08:30.077Z,10.10
2017-12-22T04:09:34.504Z,10.10
2017-12-22T04:10:38.973Z,10.10
2017-12-22T04:11:44.414Z,10.10
2017-12-22T04:12:49.925Z,10.10
2017-12-22T04:13:54.930Z,10.10
2017-12-22T04:14:59.327Z,10.20
2017-12-22T04:16:03.837Z,10.20
2017-12-22T04:17:08.313Z,10.20
2017-12-22T04:18:13.115Z,10.20
2017-12-22T04:19:18.279Z,10.20
2017-12-22T04:20:22.670Z,10.10
2017-12-22T04:21:27.136Z,10.20
2017-12-22T04:22:31.588Z,10.20
2017-12-22T04:23:36.013Z,10.20
2017-12-22T04:24:40.551Z,10.20
2017-12-22T04:25:44.942Z,10.20
2017-12-22T04:26:49.333Z,10.10
2017-12-22T04:27:53.799Z,10.20
2017-12-22T04:28:58.382Z,10.20
2017-12-22T04:30:02.803Z,10.20
2017-12-22T04:31:07.230Z,10.20
2017-12-22T04:32:12.099Z,10.10
2017-12-22T04:33:16.595Z,10.20
2017-12-22T04:34:21.776Z,10.20
2017-12-22T04:35:26.739Z,10.20
2017-12-22T04:36:31.940Z,10.20
2017-12-22T04:37:36.374Z,10.10
2017-12-22T04:38:41.878Z,10.20
2017-12-22T04:39:46.334Z,10.20
2017-12-22T04:40:51.174Z,10.10
2017-12-22T04:41:55.732Z,10.10
2017-12-22T04:43:00.910Z,10.10
2017-12-22T04:44:05.399Z,10.10
2017-12-22T04:45:10.648Z,10.10
2017-12-22T04:46:15.347Z,10.10
2017-12-22T04:47:20.842Z,10.20
2017-12-22T04:48:25.374Z,10.10
2017-12-22T04:49:29.722Z,10.20
2017-12-22T04:50:34.207Z,10.20
2017-12-22T04:51:39.883Z,10.20
2017-12-22T04:52:44.296Z,10.20
2017-12-22T04:53:48.852Z,10.20
2017-12-22T04:54:53.286Z,10.20
2017-12-22T04:55:58.460Z,10.20
2017-12-22T04:57:02.875Z,10.20
2017-12-22T04:58:07.675Z,10.20
2017-12-22T04:59:12.174Z,10.20
2017-12-22T05:00:16.618Z,10.10
2017-12-22T05:01:22.377Z,10.10
2017-12-22T05:02:26.807Z,10.10
2017-12-22T05:03:32.273Z,10.00
2017-12-22T05:04:36.948Z,10.00
2017-12-22T05:05:42.317Z,9.90
2017-12-22T05:06:46.871Z,9.90
2017-12-22T05:07:51.275Z,9.90
2017-12-22T05:08:55.755Z,9.90
2017-12-22T05:10:00.257Z,10.00
2017-12-22T05:11:04.727Z,10.00
2017-12-22T05:12:09.151Z,10.00
2017-12-22T05:13:14.840Z,10.00
2017-12-22T05:14:19.531Z,10.00
2017-12-22T05:15:24.069Z,10.10
2017-12-22T05:16:28.762Z,10.10
2017-12-22T05:17:33.261Z,10.10
2017-12-22T05:18:38.483Z,10.10
2017-12-22T05:19:43.630Z,10.10
2017-12-22T05:20:48.188Z,10.10
2017-12-22T05:21:52.912Z,10.10
2017-12-22T05:22:57.551Z,10.10
2017-12-22T05:24:02.453Z,10.10
2017-12-22T05:25:06.973Z,10.10
2017-12-22T05:26:12.945Z,10.10
2017-12-22T05:27:17.365Z,10.10
2017-12-22T05:28:21.960Z,10.10
2017-12-22T05:29:27.575Z,10.20
2017-12-22T05:30:32.083Z,10.20
2017-12-22T05:31:36.611Z,10.20
2017-12-22T05:32:41.962Z,10.20
2017-12-22T05:33:47.198Z,10.20
2017-12-22T05:34:51.667Z,10.10
2017-12-22T05:35:56.475Z,10.20
2017-12-22T05:37:01.784Z,10.20
2017-12-22T05:38:09.039Z,10.20
2017-12-22T05:39:13.798Z,10.20
2017-12-22T05:40:18.390Z,10.20
2017-12-22T05:41:22.899Z,10.20
2017-12-22T05:42:27.546Z,10.20
2017-12-22T05:43:32.038Z,10.20
2017-12-22T05:44:36.508Z,10.20
2017-12-22T05:45:41.071Z,10.20
2017-12-22T05:46:45.502Z,10.20
2017-12-22T05:47:50.141Z,10.20
2017-12-22T05:48:54.607Z,10.20
2017-12-22T05:49:59.084Z,10.20
2017-12-22T05:51:03.882Z,10.20
2017-12-22T05:52:09.250Z,10.20
2017-12-22T05:53:13.934Z,10.10
2017-12-22T05:54:18.318Z,10.10
2017-12-22T05:55:23.657Z,10.20
2017-12-22T05:56:28.849Z,10.10
2017-12-22T05:57:33.351Z,10.10
2017-12-22T05:58:38.070Z,10.10
2017-12-22T05:59:42.736Z,10.10
2017-12-22T06:00:48.160Z,10.10
2017-12-22T06:01:53.536Z,10.10
2017-12-22T06:02:58.039Z,10.10
2017-12-22T06:04:02.486Z,10.10
2017-12-22T06:05:07.100Z,10.10
2017-12-22T06:06:11.521Z,10.10
2017-12-22T06:07:16.090Z,10.10
2017-12-22T06:08:20.530Z,10.10
2017-12-22T06:09:25.210Z,10.10
2017-12-22T06:10:29.667Z,10.10
2017-12-22T06:12:53.090Z,10.10
2017-12-22T06:13:58.158Z,10.10
2017-12-22T06:15:02.802Z,10.10
2017-12-22T06:16:08.335Z,10.10
2017-12-22T06:17:13.598Z,10.10
2017-12-22T06:18:18.050Z,10.10
2017-12-22T06:19:23.387Z,10.10
2017-12-22T06:20:28.430Z,10.10
2017-12-22T06:21:32.939Z,10.10
2017-12-22T06:22:38.214Z,10.10
2017-12-22T06:23:42.927Z,10.00
2017-12-22T06:24:47.499Z,10.00
2017-12-22T06:25:52.901Z,10.00
2017-12-22T06:26:57.653Z,10.00
2017-12-22T06:28:03.245Z,10.00
2017-12-22T06:29:07.810Z,10.00
2017-12-22T06:30:12.603Z,10.00
2017-12-22T06:31:17.877Z,10.10
2017-12-22T06:32:22.768Z,10.10
2017-12-22T06:33:28.090Z,10.00
2017-12-22T06:34:33.379Z,10.10
2017-12-22T06:35:37.829Z,10.00
2017-12-22T06:36:43.224Z,10.10
2017-12-22T06:37:47.719Z,10.00
2017-12-22T06:38:53.478Z,10.10
2017-12-22T06:39:57.974Z,10.10
2017-12-22T06:41:02.625Z,10.10
2017-12-22T06:42:07.380Z,10.10
2017-12-22T06:43:11.948Z,10.10
2017-12-22T06:44:16.902Z,10.10
2017-12-22T06:45:22.452Z,10.10
2017-12-22T06:46:27.027Z,10.10
2017-12-22T06:47:32.593Z,10.10
2017-12-22T06:48:38.322Z,10.10
2017-12-22T06:49:43.683Z,10.10
2017-12-22T06:50:48.263Z,10.10
2017-12-22T06:51:52.814Z,10.10
2017-12-22T06:52:57.367Z,10.10
2017-12-22T06:54:01.868Z,10.10
2017-12-22T06:55:06.403Z,10.10
2017-12-22T06:56:11.578Z,10.10
2017-12-22T06:57:17.686Z,10.10
2017-12-22T06:58:23.170Z,10.10
2017-12-22T06:59:27.726Z,10.10
2017-12-22T07:00:32.574Z,10.10
2017-12-22T07:01:37.714Z,10.10
2017-12-22T07:02:43.671Z,10.10
2017-12-22T07:03:48.464Z,10.10
2017-12-22T07:04:53.026Z,10.20
2017-12-22T07:05:57.894Z,10.10
2017-12-22T07:07:03.404Z,10.10
2017-12-22T07:08:08.017Z,10.10
2017-12-22T07:09:13.600Z,10.10
2017-12-22T07:10:18.067Z,10.10
2017-12-22T07:11:22.558Z,10.10
2017-12-22T07:12:27.638Z,10.10
2017-12-22T07:13:32.231Z,10.10
2017-12-22T07:14:37.588Z,10.20
2017-12-22T07:15:42.262Z,10.10
2017-12-22T07:16:47.501Z,10.20
2017-12-22T07:17:52.013Z,10.10
2017-12-22T07:18:57.753Z,10.20
2017-12-22T07:20:02.410Z,10.10
2017-12-22T07:21:07.106Z,10.10
2017-12-22T07:22:12.239Z,10.10
2017-12-22T07:23:16.913Z,10.10
2017-12-22T07:24:21.756Z,10.10
2017-12-22T07:25:27.103Z,10.20
2017-12-22T07:26:32.464Z,10.20
2017-12-22T07:27:37.369Z,10.20
2017-12-22T07:28:41.985Z,10.20
2017-12-22T07:29:47.616Z,10.20
2017-12-22T07:30:52.206Z,10.10
2017-12-22T07:31:57.698Z,10.20
2017-12-22T07:33:02.351Z,10.20
2017-12-22T07:34:07.878Z,10.20
2017-12-22T07:35:13.007Z,10.20
2017-12-22T07:36:17.897Z,10.20
2017-12-22T07:37:22.422Z,10.20
2017-12-22T07:38:27.380Z,10.20
2017-12-22T07:39:32.650Z,10.20
2017-12-22T07:40:37.560Z,10.20
2017-12-22T07:41:42.166Z,10.20
2017-12-22T07:42:46.839Z,10.20
2017-12-22T07:43:51.599Z,10.20
2017-12-22T07:44:56.137Z,10.20
2017-12-22T07:46:00.880Z,10.30
2017-12-22T07:47:05.452Z,10.30
2017-12-22T07:48:09.986Z,10.30
2017-12-22T07:49:14.559Z,10.30
2017-12-22T07:50:19.097Z,10.30
2017-12-22T07:51:23.899Z,10.30
2017-12-22T07:52:29.231Z,10.30
2017-12-22T07:53:33.845Z,10.30
2017-12-22T07:54:38.715Z,10.30
2017-12-22T07:55:43.211Z,10.30
2017-12-22T07:56:47.718Z,10.30
2017-12-22T07:57:52.141Z,10.30
2017-12-22T07:58:56.769Z,10.30
2017-12-22T08:00:01.435Z,10.30
2017-12-22T08:01:05.871Z,10.30
2017-12-22T08:02:10.547Z,10.30
2017-12-22T08:03:15.290Z,10.30
2017-12-22T08:04:19.764Z,10.30
2017-12-22T08:05:25.059Z,10.30
2017-12-22T08:06:29.551Z,10.30
2017-12-22T08:07:34.067Z,10.30
2017-12-22T08:08:38.606Z,10.30
2017-12-22T08:09:43.404Z,10.30
2017-12-22T08:10:48.170Z,10.30
2017-12-22T08:11:53.564Z,10.30
2017-12-22T08:12:58.117Z,10.30
2017-12-22T08:14:03.389Z,10.30
2017-12-22T08:15:08.126Z,10.30
2017-12-22T08:16:12.626Z,10.30
2017-12-22T08:17:17.250Z,10.30
2017-12-22T08:18:21.755Z,10.30
2017-12-22T08:19:26.260Z,10.30
2017-12-22T08:20:30.989Z,10.30
2017-12-22T08:21:35.458Z,10.30
2017-12-22T08:22:40.117Z,10.30
2017-12-22T08:23:44.606Z,10.30
2017-12-22T08:24:49.210Z,10.30
2017-12-22T08:25:54.122Z,10.30
2017-12-22T08:26:58.669Z,10.30
2017-12-22T08:28:03.414Z,10.30
2017-12-22T08:29:08.691Z,10.40
2017-12-22T08:30:13.164Z,10.30
2017-12-22T08:31:18.633Z,10.30
2017-12-22T08:32:23.195Z,10.30
2017-12-22T08:33:27.950Z,10.30
2017-12-22T08:34:32.458Z,10.30
2017-12-22T08:35:36.946Z,10.20
2017-12-22T08:36:42.301Z,10.20
2017-12-22T08:37:46.773Z,10.20
2017-12-22T08:38:51.454Z,10.20
2017-12-22T08:39:56.710Z,10.20
2017-12-22T08:41:01.244Z,10.20
2017-12-22T08:42:06.150Z,10.20
2017-12-22T08:43:10.623Z,10.20
2017-12-22T08:44:15.155Z,10.30
2017-12-22T08:45:19.691Z,10.30
2017-12-22T08:46:24.244Z,10.30
2017-12-22T08:47:29.478Z,10.40
2017-12-22T08:48:34.032Z,10.40
2017-12-22T08:49:38.782Z,10.40
2017-12-22T08:50:44.251Z,10.40
2017-12-22T08:51:48.767Z,10.40
2017-12-22T08:52:53.334Z,10.40
2017-12-22T08:53:58.694Z,10.40
2017-12-22T08:55:03.216Z,10.40
2017-12-22T08:56:08.433Z,10.40
2017-12-22T08:57:13.018Z,10.40
2017-12-22T08:58:18.758Z,10.50
2017-12-22T08:59:23.312Z,10.50
2017-12-22T09:00:27.851Z,10.40
2017-12-22T09:01:32.353Z,10.40
2017-12-22T09:02:36.866Z,10.40
2017-12-22T09:03:41.791Z,10.40
2017-12-22T09:04:46.311Z,10.40
2017-12-22T09:05:50.998Z,10.40
2017-12-22T09:06:55.633Z,10.30
2017-12-22T09:08:00.494Z,10.30
2017-12-22T09:09:06.449Z,10.30
2017-12-22T09:10:11.319Z,10.30
2017-12-22T09:11:16.188Z,10.30
2017-12-22T09:12:21.622Z,10.30
2017-12-22T09:13:26.994Z,10.30
2017-12-22T09:14:31.639Z,10.20
2017-12-22T09:15:36.191Z,10.30
2017-12-22T09:16:41.164Z,10.20
2017-12-22T09:17:45.647Z,10.20
2017-12-22T09:18:50.179Z,10.20
2017-12-22T09:19:54.743Z,10.10
2017-12-22T09:21:00.126Z,10.10
2017-12-22T09:22:05.095Z,10.10
2017-12-22T09:23:09.818Z,10.10
2017-12-22T09:24:15.158Z,10.10
2017-12-22T09:25:19.774Z,10.10
2017-12-22T09:26:24.283Z,10.10
2017-12-22T09:27:28.902Z,10.10
2017-12-22T09:28:33.896Z,10.10
2017-12-22T09:29:39.179Z,10.30
2017-12-22T09:30:43.809Z,10.20
2017-12-22T09:31:48.343Z,10.30
2017-12-22T09:32:52.927Z,10.30
2017-12-22T09:33:57.897Z,10.30
2017-12-22T09:35:03.198Z,10.30
2017-12-22T09:36:07.928Z,10.30
2017-12-22T09:37:12.559Z,10.40
2017-12-22T09:38:17.872Z,10.50
2017-12-22T09:39:24.218Z,10.50
2017-12-22T09:40:28.765Z,10.60
2017-12-22T09:41:34.188Z,10.60
2017-12-22T09:42:39.522Z,10.50
2017-12-22T09:43:45.098Z,10.40
2017-12-22T09:44:50.063Z,10.40
2017-12-22T09:45:54.694Z,10.30
2017-12-22T09:46:59.333Z,10.30
2017-12-22T09:48:04.496Z,10.20
2017-12-22T09:49:09.084Z,10.20
2017-12-22T09:50:14.511Z,10.30
2017-12-22T09:51:19.670Z,10.30
2017-12-22T09:52:24.186Z,10.20
2017-12-22T09:53:29.677Z,10.10
2017-12-22T09:54:34.609Z,10.00
2017-12-22T09:55:39.570Z,9.90
2017-12-22T09:56:44.171Z,9.90
2017-12-22T09:57:48.791Z,9.90
2017-12-22T09:58:53.350Z,9.90
2017-12-22T10:00:01.220Z,10.00
2017-12-22T10:01:09.455Z,10.00
2017-12-22T10:02:14.117Z,10.00
2017-12-22T10:03:18.646Z,10.10
2017-12-22T10:04:23.276Z,10.10
2017-12-22T10:05:28.814Z,10.10
2017-12-22T10:16:34.512Z,10.00
2017-12-22T10:17:40.088Z,10.00
2017-12-22T10:18:44.660Z,10.00
2017-12-22T10:19:49.937Z,10.00
2017-12-22T10:20:54.383Z,10.00
2017-12-22T10:21:59.051Z,10.00
2017-12-22T10:23:04.016Z,10.10
2017-12-22T10:24:09.253Z,10.20
2017-12-22T10:25:13.806Z,10.20
2017-12-22T10:26:18.419Z,10.30
2017-12-22T10:27:23.078Z,10.30
2017-12-22T10:28:28.731Z,10.30
2017-12-22T10:29:33.250Z,10.30
2017-12-22T10:30:38.633Z,10.30
2017-12-22T10:31:43.353Z,10.30
2017-12-22T10:32:47.874Z,10.30
2017-12-22T10:33:52.855Z,10.30
2017-12-22T10:34:57.559Z,10.30
2017-12-22T10:36:02.803Z,10.40
2017-12-22T10:37:07.373Z,10.30
2017-12-22T10:38:12.040Z,10.40
2017-12-22T10:39:17.002Z,10.30
2017-12-22T10:40:21.519Z,10.20
2017-12-22T10:41:26.069Z,10.20
2017-12-22T10:42:31.460Z,10.30
2017-12-22T10:43:35.959Z,10.20
2017-12-22T10:44:40.867Z,10.20
2017-12-22T10:45:45.370Z,10.20
2017-12-22T10:46:49.981Z,10.20
2017-12-22T10:47:54.712Z,10.20
2017-12-22T10:48:59.497Z,10.20
2017-12-22T10:50:05.795Z,10.20
2017-12-22T10:51:10.346Z,10.20
2017-12-22T10:52:14.895Z,10.20
2017-12-22T10:53:19.729Z,10.20
2017-12-22T10:54:24.781Z,10.20
2017-12-22T10:55:29.306Z,10.20
2017-12-22T10:56:34.757Z,10.10
2017-12-22T10:57:40.171Z,10.10
2017-12-22T10:58:44.835Z,10.10
2017-12-22T10:59:49.443Z,10.10
2017-12-22T11:00:54.056Z,10.20
2017-12-22T11:01:59.032Z,10.20
2017-12-22T11:03:03.881Z,10.20
2017-12-22T11:04:08.943Z,10.20
2017-12-22T11:05:13.791Z,10.10
2017-12-22T11:06:18.327Z,10.10
2017-12-22T11:07:22.895Z,10.10
2017-12-22T11:08:27.444Z,10.10
2017-12-22T11:09:32.115Z,10.10
2017-12-22T11:10:36.664Z,10.20
2017-12-22T11:11:41.367Z,10.20
2017-12-22T11:12:46.747Z,10.20
2017-12-22T11:13:51.626Z,10.30
2017-12-22T11:14:56.291Z,10.30
2017-12-22T11:16:00.870Z,10.40
2017-12-22T11:17:05.435Z,10.40
2017-12-22T11:18:10.064Z,10.40
2017-12-22T11:19:14.692Z,10.30
2017-12-22T11:20:19.329Z,10.30
2017-12-22T11:21:23.979Z,10.30
2017-12-22T11:22:28.739Z,10.30
2017-12-22T11:23:33.786Z,10.30
2017-12-22T11:24:38.658Z,10.20
2017-12-22T11:25:43.256Z,10.20
2017-12-22T11:26:47.801Z,10.20
2017-12-22T11:27:52.435Z,10.10
2017-12-22T11:28:57.911Z,10.20
2017-12-22T11:30:03.228Z,10.20
2017-12-22T11:31:08.563Z,10.20
2017-12-22T11:32:13.887Z,10.10
2017-12-22T11:33:18.646Z,10.10
2017-12-22T11:34:23.180Z,10.20
2017-12-22T11:35:58.195Z,10.20
2017-12-22T11:37:02.899Z,10.20
2017-12-22T11:38:07.591Z,10.20
2017-12-22T11:39:12.103Z,10.20
2017-12-22T11:40:17.352Z,10.30
2017-12-22T11:41:22.164Z,10.30
2017-12-22T11:42:26.787Z,10.30
2017-12-22T11:43:31.596Z,10.30
2017-12-22T11:44:36.197Z,10.30
2017-12-22T11:45:41.603Z,10.30
2017-12-22T11:46:46.182Z,10.30
2017-12-22T11:47:50.699Z,10.30
2017-12-22T11:48:55.655Z,10.30
2017-12-22T11:50:00.983Z,10.20
2017-12-22T11:51:05.515Z,10.20
2017-12-22T11:52:11.050Z,10.20
2017-12-22T11:53:16.720Z,10.10
2017-12-22T11:54:21.318Z,10.20
2017-12-22T11:55:25.907Z,10.20
2017-12-22T11:56:31.351Z,10.30
2017-12-22T11:57:36.360Z,10.20
2017-12-22T11:58:41.058Z,10.30
2017-12-22T11:59:45.652Z,10.30
2017-12-22T12:00:50.266Z,10.20
2017-12-22T12:01:54.917Z,10.30
2017-12-22T12:03:00.945Z,10.30
2017-12-22T12:04:05.785Z,10.30
2017-12-22T12:05:10.868Z,10.30
2017-12-22T12:06:16.269Z,10.20
2017-12-22T12:07:21.643Z,10.30
2017-12-22T12:08:26.227Z,10.20
2017-12-22T12:09:30.924Z,10.20
2017-12-22T12:10:36.299Z,10.30
2017-12-22T12:11:41.019Z,10.30
2017-12-22T12:12:45.691Z,10.30
2017-12-22T12:13:50.177Z,10.40
2017-12-22T12:14:54.974Z,10.40
2017-12-22T12:15:59.576Z,10.40
2017-12-22T12:17:04.143Z,10.30
2017-12-22T12:18:09.595Z,10.30
2017-12-22T12:19:14.231Z,10.30
2017-12-22T12:20:19.087Z,10.30
2017-12-22T12:21:24.035Z,10.20
2017-12-22T12:22:28.903Z,10.20
2017-12-22T12:23:33.563Z,10.20
2017-12-22T12:24:38.886Z,10.20
2017-12-22T12:25:43.540Z,10.20
2017-12-22T12:26:48.105Z,10.20
2017-12-22T12:27:52.662Z,10.20
2017-12-22T12:28:57.175Z,10.10
2017-12-22T12:30:01.837Z,10.10
2017-12-22T12:31:06.514Z,10.20
2017-12-22T12:32:11.264Z,10.20
2017-12-22T12:33:16.267Z,10.30
2017-12-22T12:34:20.804Z,10.30
2017-12-22T12:35:25.380Z,10.40
2017-12-22T12:36:30.240Z,10.40
2017-12-22T12:37:34.914Z,10.40
2017-12-22T12:38:39.509Z,10.40
2017-12-22T12:39:44.855Z,10.50
2017-12-22T12:42:56.452Z,10.40
2017-12-22T12:44:01.008Z,10.40
2017-12-22T12:45:05.787Z,10.30
2017-12-22T12:46:10.395Z,10.30
2017-12-22T12:47:15.016Z,10.30
2017-12-22T12:48:19.599Z,10.40
2017-12-22T12:49:25.252Z,10.40
2017-12-22T12:50:29.776Z,10.40
2017-12-22T12:51:34.748Z,10.40
2017-12-22T12:52:40.128Z,10.50
2017-12-22T12:53:44.806Z,10.40
2017-12-22T12:54:49.449Z,10.40
2017-12-22T12:55:54.027Z,10.50
2017-12-22T12:56:58.678Z,10.50
2017-12-22T12:58:03.385Z,10.40
2017-12-22T12:59:08.671Z,10.50
2017-12-22T13:00:13.245Z,10.40
2017-12-22T13:01:18.542Z,10.40
2017-12-22T13:02:23.948Z,10.40
2017-12-22T13:03:28.609Z,10.40
2017-12-22T13:04:33.264Z,10.40
2017-12-22T13:05:37.875Z,10.40
2017-12-22T13:06:42.863Z,10.40
2017-12-22T13:07:47.376Z,10.40
2017-12-22T13:08:51.969Z,10.30
2017-12-22T13:09:56.772Z,10.40
2017-12-22T13:11:01.327Z,10.40
2017-12-22T13:12:05.897Z,10.50
2017-12-22T13:13:10.474Z,10.40
2017-12-22T13:14:15.020Z,10.50
2017-12-22T13:15:19.656Z,10.40
2017-12-22T13:16:24.226Z,10.40
2017-12-22T13:17:29.120Z,10.40
2017-12-22T13:18:33.689Z,10.40
2017-12-22T13:19:38.286Z,10.40
2017-12-22T13:20:43.101Z,10.40
2017-12-22T13:21:47.691Z,10.30
2017-12-22T13:22:52.944Z,10.30
2017-12-22T13:23:57.599Z,10.30
2017-12-22T13:25:02.943Z,10.30
2017-12-22T13:26:07.598Z,10.30
2017-12-22T13:27:12.299Z,10.30
2017-12-22T13:28:16.890Z,10.30
2017-12-22T13:29:22.168Z,10.10
2017-12-22T13:30:26.861Z,10.10
2017-12-22T13:31:31.657Z,10.10
2017-12-22T13:32:36.676Z,10.10
2017-12-22T13:33:42.570Z,10.20
2017-12-22T13:34:47.072Z,10.20
2017-12-22T13:35:51.599Z,10.30
2017-12-22T13:36:56.284Z,10.30
2017-12-22T13:38:00.944Z,10.30
2017-12-22T13:39:06.808Z,10.30
2017-12-22T13:40:12.328Z,10.30
2017-12-22T13:41:17.622Z,10.30
2017-12-22T13:42:22.449Z,10.20
2017-12-22T13:43:27.179Z,10.30
2017-12-22T13:44:31.772Z,10.30
2017-12-22T13:45:36.381Z,10.30
2017-12-22T13:46:42.608Z,10.30
2017-12-22T13:47:47.331Z,10.40
2017-12-22T13:48:52.500Z,10.40
2017-12-22T13:49:57.077Z,10.40
2017-12-22T13:51:01.636Z,10.30
2017-12-22T13:52:06.352Z,10.30
2017-12-22T13:53:10.963Z,10.30
2017-12-22T13:54:15.599Z,10.20
2017-12-22T13:55:20.160Z,10.30
2017-12-22T13:56:24.999Z,10.30
2017-12-22T13:57:29.924Z,10.20
2017-12-22T13:58:34.827Z,10.20
2017-12-22T13:59:39.502Z,10.10
2017-12-22T14:00:44.895Z,10.20
2017-12-22T14:01:49.532Z,10.20
2017-12-22T14:02:55.055Z,10.20
2017-12-22T14:04:00.410Z,10.30
2017-12-22T14:05:05.991Z,10.20
2017-12-22T14:06:10.691Z,10.20
2017-12-22T14:07:17.224Z,10.20
2017-12-22T14:08:21.835Z,10.20
2017-12-22T14:09:27.299Z,10.20
2017-12-22T14:10:31.912Z,10.20
2017-12-22T14:11:36.670Z,10.20
2017-12-22T14:12:41.253Z,10.20